Terminal Aerodrome Forecast
Issued by NWS

Home | Current Version | Previous Version | Text Only | Print | Product List | Glossary On
Versions: 1 2 3 4 5 6 7 8 9 10 11 12 13 14 15
000
FTUS44 KJAN 301123
TAFHKS
TAF
KHKS 301123Z 3012/3112 17006KT P6SM FEW008 SCT018 BKN150
     FM301430 17008KT P6SM VCSH SCT025 BKN040 BKN150
     FM301800 19010KT 5SM -TSRA SCT025 BKN035CB OVC100
     FM302300 20006KT 6SM -SHRA VCTS SCT030 BKN050CB BKN150
     FM310400 18004KT P6SM VCSH SCT020 BKN030 BKN150=

USA.gov is the U.S. government's official web portal to all federal, state and local government web resources and services.